Time;durP1;ratioP1;P1;durP2;ratioP2;P2;SDS_P1;SDS_P2;PMS_P1;PMS_P2;Temp;Humidity;BMP_temperature;BMP_pressure;BME280_temperature;BME280_humidity;BME280_pressure;Samples;Min_cycle;Max_cycle;Signal;HPM_P1;HPM_P2
2022/11/21 00:00:52;;;;;;;32.20;17.92;;;0.80;99.90;;;;;;5014009;28;20461;-73
2022/11/21 00:03:18;;;;;;;30.40;16.73;;;0.80;99.90;;;;;;5016547;28;20041;-73
2022/11/21 00:05:46;;;;;;;32.45;17.27;;;0.80;99.90;;;;;;5013664;28;20026;-73
2022/11/21 00:08:15;;;;;;;30.38;17.10;;;0.80;99.90;;;;;;5017586;28;20098;-73
2022/11/21 00:10:41;;;;;;;29.15;16.00;;;0.80;99.90;;;;;;5011217;28;20083;-72
2022/11/21 00:13:11;;;;;;;28.02;16.40;;;0.80;99.90;;;;;;5050043;28;20033;-72
2022/11/21 00:15:37;;;;;;;30.50;16.33;;;0.80;99.90;;;;;;5014537;28;20029;-72
2022/11/21 00:18:04;;;;;;;31.08;16.35;;;0.70;99.90;;;;;;5017914;28;20076;-73
2022/11/21 00:20:30;;;;;;;29.10;16.60;;;0.70;99.90;;;;;;5015326;28;20037;-73
2022/11/21 00:22:56;;;;;;;28.55;16.23;;;0.70;99.90;;;;;;5017784;28;20029;-73
2022/11/21 00:25:21;;;;;;;25.17;14.82;;;0.70;99.90;;;;;;5032799;28;20033;-73
2022/11/21 00:27:47;;;;;;;26.23;14.27;;;0.70;99.90;;;;;;5047936;28;20037;-72
2022/11/21 00:30:13;;;;;;;27.98;16.00;;;0.70;99.90;;;;;;5033548;28;20038;-73
2022/11/21 00:32:39;;;;;;;29.00;16.80;;;0.70;99.90;;;;;;5051901;28;20022;-73
2022/11/21 00:35:06;;;;;;;30.70;17.13;;;0.70;99.90;;;;;;5047927;28;20037;-73
2022/11/21 00:37:32;;;;;;;28.02;16.10;;;0.70;99.90;;;;;;5052631;28;20147;-73
2022/11/21 00:39:59;;;;;;;32.42;16.48;;;0.70;99.90;;;;;;5019010;28;20021;-73
2022/11/21 00:42:25;;;;;;;28.90;16.00;;;0.70;99.90;;;;;;5020539;28;20029;-73
2022/11/21 00:44:51;;;;;;;27.95;16.77;;;0.70;99.90;;;;;;5048659;28;20079;-73
2022/11/21 00:47:16;;;;;;;31.75;16.63;;;0.70;99.90;;;;;;5039343;28;20045;-73
2022/11/21 00:49:42;;;;;;;29.95;17.90;;;0.70;99.90;;;;;;5038486;28;20033;-72
2022/11/21 00:52:08;;;;;;;33.42;17.23;;;0.70;99.90;;;;;;5020755;28;20029;-72
2022/11/21 00:54:34;;;;;;;29.45;17.08;;;0.60;99.90;;;;;;5019684;28;20034;-72
2022/11/21 00:56:59;;;;;;;29.33;17.25;;;0.60;99.90;;;;;;5018654;28;20108;-72
2022/11/21 00:59:26;;;;;;;32.78;16.95;;;0.70;99.90;;;;;;5050738;28;20116;-72
2022/11/21 01:01:52;;;;;;;31.00;17.23;;;0.60;99.90;;;;;;5037216;28;20071;-72
2022/11/21 01:04:18;;;;;;;29.40;15.65;;;0.60;99.90;;;;;;5033690;28;20030;-73
2022/11/21 01:06:43;;;;;;;26.23;15.15;;;0.60;99.90;;;;;;5036672;28;20412;-72
2022/11/21 01:09:09;;;;;;;32.92;16.42;;;0.60;99.90;;;;;;5048070;28;20026;-73
2022/11/21 01:11:35;;;;;;;28.77;16.70;;;0.60;99.90;;;;;;5038637;28;20033;-72
2022/11/21 01:14:01;;;;;;;26.15;15.45;;;0.60;99.90;;;;;;5037746;28;20052;-73
2022/11/21 01:16:28;;;;;;;27.90;15.63;;;0.60;99.90;;;;;;5036743;28;20036;-73
2022/11/21 01:18:54;;;;;;;29.48;16.17;;;0.60;99.90;;;;;;5038850;28;20059;-74
2022/11/21 01:21:25;;;;;;;31.85;17.20;;;0.60;99.90;;;;;;5020020;28;20021;-74
2022/11/21 01:23:52;;;;;;;28.08;16.10;;;0.60;99.90;;;;;;5015195;28;20067;-74
2022/11/21 01:26:23;;;;;;;26.08;15.32;;;0.50;99.90;;;;;;5033928;28;20036;-74
2022/11/21 01:28:49;;;;;;;;;;;0.50;99.90;;;;;;5019360;28;20045;-73
2022/11/21 01:31:21;;;;;;;25.30;14.10;;;0.50;99.90;;;;;;5018966;28;19971;-74
2022/11/21 01:33:47;;;;;;;27.85;14.55;;;0.50;99.90;;;;;;5032115;28;20156;-74
2022/11/21 01:36:32;;;;;;;25.30;15.02;;;0.50;99.90;;;;;;5038096;28;20074;-74
2022/11/21 01:39:00;;;;;;;27.55;15.68;;;0.50;99.90;;;;;;5033081;28;20037;-73
2022/11/21 01:41:37;;;;;;;28.42;15.85;;;0.50;99.90;;;;;;5016747;28;20035;-74
2022/11/21 01:44:26;;;;;;;29.42;15.55;;;0.50;99.90;;;;;;5034507;28;20029;-73
2022/11/21 01:46:52;;;;;;;26.45;15.82;;;0.50;99.90;;;;;;5036586;28;20025;-74
2022/11/21 01:49:31;;;;;;;26.67;15.45;;;0.50;99.90;;;;;;5035897;28;20059;-74
2022/11/21 01:52:10;;;;;;;27.40;15.20;;;0.40;99.90;;;;;;5034954;28;20041;-74
2022/11/21 01:54:41;;;;;;;28.80;15.75;;;0.40;99.90;;;;;;5051644;28;20039;-72
2022/11/21 01:57:25;;;;;;;29.42;16.63;;;0.40;99.90;;;;;;5037115;28;20040;-74
2022/11/21 02:00:00;;;;;;;26.30;14.80;;;0.50;99.90;;;;;;5036709;28;20040;-73
2022/11/21 02:02:36;;;;;;;31.60;15.48;;;0.40;99.90;;;;;;5047270;28;20401;-73
2022/11/21 02:05:05;;;;;;;28.33;15.23;;;0.40;99.90;;;;;;5018176;28;20025;-73
2022/11/21 02:07:36;;;;;;;26.38;14.05;;;0.40;99.90;;;;;;5018624;28;20037;-74
2022/11/21 02:10:03;;;;;;;24.02;13.57;;;0.40;99.90;;;;;;5018228;28;20781;-73
2022/11/21 02:12:34;;;;;;;23.05;13.77;;;0.40;99.90;;;;;;5033890;28;20038;-73
2022/11/21 02:15:00;;;;;;;21.67;13.23;;;0.40;99.90;;;;;;5036797;28;20017;-73
2022/11/21 02:17:29;;;;;;;21.25;13.07;;;0.40;99.90;;;;;;5050608;28;20037;-73
2022/11/21 02:19:58;;;;;;;22.90;14.02;;;0.40;99.90;;;;;;5015456;28;20339;-73
2022/11/21 02:22:57;;;;;;;24.75;14.40;;;0.30;99.90;;;;;;5016253;28;20390;-73
2022/11/21 02:25:28;;;;;;;22.27;13.88;;;0.30;99.90;;;;;;5003904;28;20068;-74
2022/11/21 02:28:00;;;;;;;26.48;14.15;;;0.20;99.90;;;;;;5053600;28;20025;-72
2022/11/21 02:30:28;;;;;;;24.02;12.82;;;0.20;99.90;;;;;;5033217;28;20076;-74
2022/11/21 02:32:57;;;;;;;23.85;13.35;;;0.20;99.90;;;;;;5017800;28;20036;-74
2022/11/21 02:35:23;;;;;;;24.23;12.95;;;0.20;99.90;;;;;;4999526;28;20079;-72
2022/11/21 02:38:12;;;;;;;28.33;14.43;;;0.20;99.90;;;;;;5037589;28;20025;-73
2022/11/21 02:40:42;;;;;;;25.13;14.20;;;0.20;99.90;;;;;;5034338;28;20048;-74
2022/11/21 02:43:21;;;;;;;26.65;15.38;;;0.20;99.90;;;;;;5018298;28;20056;-74
2022/11/21 02:45:47;;;;;;;30.20;15.45;;;0.10;99.90;;;;;;5019075;28;20040;-71
2022/11/21 02:48:13;;;;;;;28.20;14.75;;;0.10;99.90;;;;;;5031720;28;20037;-72
2022/11/21 02:50:42;;;;;;;26.08;14.60;;;0.10;99.90;;;;;;5033283;28;20025;-72
2022/11/21 02:53:10;;;;;;;26.02;14.93;;;0.10;99.90;;;;;;5050377;28;20509;-72
2022/11/21 02:55:37;;;;;;;26.92;14.75;;;0.10;99.90;;;;;;5036745;28;20029;-72
2022/11/21 02:58:03;;;;;;;27.38;15.38;;;0.00;99.90;;;;;;5037754;28;20059;-72
2022/11/21 03:00:29;;;;;;;26.73;14.95;;;0.00;99.90;;;;;;5015544;28;20099;-73
2022/11/21 03:02:55;;;;;;;26.77;14.68;;;0.00;99.90;;;;;;5030345;28;20083;-72
2022/11/21 03:05:21;;;;;;;26.10;13.73;;;0.00;99.90;;;;;;5033372;28;20071;-72
2022/11/21 03:07:47;;;;;;;25.73;14.35;;;0.00;99.90;;;;;;5052944;28;20025;-73
2022/11/21 03:10:13;;;;;;;27.90;15.45;;;0.00;99.90;;;;;;5017917;28;20075;-72
2022/11/21 03:12:40;;;;;;;25.33;13.70;;;0.10;99.90;;;;;;5016928;28;20391;-74
2022/11/21 03:15:08;;;;;;;21.77;12.93;;;0.00;99.90;;;;;;5018856;28;20052;-72
2022/11/21 03:17:34;;;;;;;23.92;13.52;;;0.10;99.90;;;;;;5011584;28;20033;-72
2022/11/21 03:20:00;;;;;;;23.67;13.25;;;0.00;99.90;;;;;;5016093;28;20033;-72
2022/11/21 03:22:26;;;;;;;24.10;13.90;;;0.00;99.90;;;;;;5013418;28;20111;-72
2022/11/21 03:24:53;;;;;;;21.65;13.10;;;0.00;99.90;;;;;;5035530;28;20021;-74
2022/11/21 03:27:19;;;;;;;23.13;13.52;;;0.00;99.90;;;;;;5036303;28;20104;-74
2022/11/21 03:29:45;;;;;;;23.25;13.05;;;0.00;99.90;;;;;;5034324;28;20119;-74
2022/11/21 03:32:11;;;;;;;22.42;13.23;;;0.00;99.90;;;;;;5019479;28;20037;-74
2022/11/21 03:34:36;;;;;;;23.92;13.35;;;0.00;99.90;;;;;;5030312;28;20025;-75
2022/11/21 03:37:02;;;;;;;22.70;12.85;;;0.00;99.90;;;;;;5030531;28;20033;-74
2022/11/21 03:39:29;;;;;;;23.88;14.07;;;0.00;99.90;;;;;;5050503;28;20393;-73
2022/11/21 03:41:55;;;;;;;23.02;12.07;;;0.00;99.90;;;;;;5032928;28;20041;-72
2022/11/21 03:44:20;;;;;;;22.75;12.30;;;0.00;99.90;;;;;;5035488;28;20036;-74
2022/11/21 03:46:46;;;;;;;22.67;13.15;;;0.00;99.90;;;;;;5032951;28;20037;-74
2022/11/21 03:49:14;;;;;;;22.25;13.02;;;0.00;99.90;;;;;;5050792;28;20025;-74
2022/11/21 03:51:40;;;;;;;24.23;13.90;;;0.00;99.90;;;;;;5015703;28;20037;-74
2022/11/21 03:54:06;;;;;;;24.60;13.60;;;0.00;99.90;;;;;;5033957;28;20527;-74
2022/11/21 03:56:32;;;;;;;27.58;14.32;;;0.00;99.90;;;;;;5017375;28;20029;-74
2022/11/21 03:58:58;;;;;;;27.65;13.43;;;0.00;99.90;;;;;;5016910;28;20036;-74
2022/11/21 04:01:24;;;;;;;24.20;13.50;;;0.00;99.90;;;;;;5031915;28;20025;-73
2022/11/21 04:03:51;;;;;;;29.77;14.52;;;0.00;99.90;;;;;;5037712;28;20036;-74
2022/11/21 04:06:20;;;;;;;26.02;14.13;;;-0.10;99.90;;;;;;4999627;28;20025;-73
2022/11/21 04:08:46;;;;;;;26.25;15.23;;;-0.10;99.90;;;;;;5034287;28;20142;-73
2022/11/21 04:11:12;;;;;;;24.88;14.38;;;-0.10;99.90;;;;;;5051884;28;20486;-75
2022/11/21 04:13:38;;;;;;;25.90;13.77;;;-0.10;99.90;;;;;;5037820;28;20143;-72
2022/11/21 04:16:04;;;;;;;25.90;14.38;;;-0.10;99.90;;;;;;5034760;28;20036;-73
2022/11/21 04:18:29;;;;;;;24.67;13.77;;;-0.10;99.90;;;;;;5037878;28;20044;-72
2022/11/21 04:21:04;;;;;;;25.23;13.55;;;-0.10;99.90;;;;;;5037921;28;20036;-72
2022/11/21 04:23:45;;;;;;;25.45;14.82;;;-0.10;99.90;;;;;;5036919;28;20038;-74
2022/11/21 04:26:10;;;;;;;26.65;14.60;;;-0.10;99.90;;;;;;5040608;28;20052;-74
2022/11/21 04:28:37;;;;;;;27.45;15.68;;;-0.10;99.90;;;;;;5035754;28;20084;-72
2022/11/21 04:31:04;;;;;;;27.27;15.15;;;-0.10;99.90;;;;;;5056223;28;20028;-72
2022/11/21 04:33:31;;;;;;;25.52;14.18;;;-0.10;99.90;;;;;;5022861;28;20099;-72
2022/11/21 04:35:56;;;;;;;27.42;14.95;;;-0.10;99.90;;;;;;5003798;28;20490;-73
2022/11/21 04:38:22;;;;;;;24.23;13.50;;;-0.10;99.90;;;;;;5037996;28;20033;-74
2022/11/21 04:40:48;;;;;;;26.65;14.05;;;-0.20;99.90;;;;;;5025245;28;20541;-73
2022/11/21 04:43:14;;;;;;;24.55;13.68;;;-0.20;99.90;;;;;;5036711;28;20034;-72
2022/11/21 04:45:39;;;;;;;23.23;12.98;;;-0.30;99.90;;;;;;5038747;28;20025;-73
2022/11/21 04:48:05;;;;;;;23.92;14.23;;;-0.20;99.90;;;;;;5037767;28;20078;-72
2022/11/21 04:50:31;;;;;;;24.73;13.38;;;-0.30;99.90;;;;;;5018840;28;20045;-73
2022/11/21 04:52:57;;;;;;;23.48;13.98;;;-0.40;99.90;;;;;;5041384;28;20056;-73
2022/11/21 04:55:28;;;;;;;23.67;12.95;;;-0.40;99.90;;;;;;5054884;28;20057;-74
2022/11/21 04:57:54;;;;;;;25.70;14.25;;;-0.40;99.90;;;;;;5032274;28;20553;-73
2022/11/21 05:00:20;;;;;;;27.67;15.40;;;-0.40;99.90;;;;;;5021417;28;20128;-73
2022/11/21 05:02:46;;;;;;;27.48;14.98;;;-0.40;99.90;;;;;;5037699;28;20033;-73
2022/11/21 05:05:12;;;;;;;24.73;14.48;;;-0.40;99.90;;;;;;5036341;28;20025;-73
2022/11/21 05:07:38;;;;;;;25.55;13.93;;;-0.40;99.90;;;;;;5022862;28;20032;-73
2022/11/21 05:10:05;;;;;;;26.63;14.05;;;-0.40;99.90;;;;;;5036207;28;20050;-73
2022/11/21 05:15:15;;;;;;;24.85;13.90;;;-0.40;99.90;;;;;;5035188;28;20028;-73
2022/11/21 05:17:41;;;;;;;22.70;13.60;;;-0.40;99.90;;;;;;5051484;28;20031;-73
2022/11/21 05:20:08;;;;;;;27.02;14.52;;;-0.50;99.90;;;;;;5018973;28;20079;-73
2022/11/21 05:22:33;;;;;;;25.67;14.20;;;-0.40;99.90;;;;;;5033035;28;20035;-72
2022/11/21 05:24:59;;;;;;;27.05;15.45;;;-0.50;99.90;;;;;;5040510;28;20024;-73
2022/11/21 05:27:25;;;;;;;25.70;14.35;;;-0.40;99.90;;;;;;5021511;28;20108;-72
2022/11/21 05:29:51;;;;;;;27.60;15.40;;;-0.40;99.90;;;;;;5019600;28;20048;-74
2022/11/21 05:32:16;;;;;;;28.75;15.50;;;-0.40;99.90;;;;;;5002928;28;20100;-73
2022/11/21 05:34:42;;;;;;;26.25;14.32;;;-0.40;99.90;;;;;;5040226;28;20033;-74
2022/11/21 05:37:08;;;;;;;25.40;14.73;;;-0.40;99.90;;;;;;5040605;28;20108;-73
2022/11/21 05:39:33;;;;;;;23.20;13.90;;;-0.40;99.90;;;;;;5055082;28;20026;-74
2022/11/21 05:41:59;;;;;;;22.70;12.55;;;-0.30;99.90;;;;;;5056019;28;20040;-73
2022/11/21 05:44:25;;;;;;;24.60;13.38;;;-0.40;99.90;;;;;;5038810;28;20087;-73
2022/11/21 05:46:50;;;;;;;24.23;13.40;;;-0.40;99.90;;;;;;5013372;28;20505;-73
2022/11/21 05:49:16;;;;;;;22.98;12.93;;;-0.30;99.90;;;;;;5036800;28;20059;-74
2022/11/21 05:51:42;;;;;;;22.75;13.35;;;-0.40;99.90;;;;;;5017761;28;20405;-74
2022/11/21 05:54:14;;;;;;;22.90;13.20;;;-0.40;99.90;;;;;;5019844;28;20025;-74
2022/11/21 05:56:40;;;;;;;23.92;12.75;;;-0.30;99.90;;;;;;5031703;28;20029;-73
2022/11/21 05:59:09;;;;;;;24.20;13.23;;;-0.40;99.90;;;;;;5019620;28;20527;-74
2022/11/21 06:04:20;;;;;;;22.17;12.73;;;-0.40;99.90;;;;;;5032891;28;20394;-74
2022/11/21 06:06:46;;;;;;;24.27;13.65;;;-0.30;99.90;;;;;;5043652;28;20065;-73
2022/11/21 06:09:11;;;;;;;25.95;13.98;;;-0.40;99.90;;;;;;5045715;28;20042;-73
2022/11/21 06:11:37;;;;;;;24.35;13.77;;;-0.40;99.90;;;;;;5035275;28;20037;-73
2022/11/21 06:14:03;;;;;;;26.83;14.68;;;-0.50;99.90;;;;;;5036375;28;20100;-74
2022/11/21 06:16:29;;;;;;;25.38;14.52;;;-0.50;99.90;;;;;;5011573;28;20087;-75
2022/11/21 06:18:54;;;;;;;26.30;14.20;;;-0.50;99.90;;;;;;5019975;28;20021;-72
2022/11/21 06:21:23;;;;;;;25.27;14.98;;;-0.50;99.90;;;;;;5032744;28;20036;-73
2022/11/21 06:23:53;;;;;;;26.48;14.35;;;-0.50;99.90;;;;;;5043676;28;20060;-73
2022/11/21 06:26:23;;;;;;;28.83;16.27;;;-0.60;99.90;;;;;;5033878;28;20024;-73
2022/11/21 06:28:51;;;;;;;27.10;14.85;;;-0.60;99.90;;;;;;5032360;28;20443;-76
2022/11/21 06:31:23;;;;;;;26.83;15.18;;;-0.50;99.90;;;;;;5012476;28;20104;-73
2022/11/21 06:33:54;;;;;;;26.90;14.40;;;-0.50;99.90;;;;;;5018731;28;20025;-73
2022/11/21 06:36:20;;;;;;;;;;;-0.50;99.90;;;;;;5017660;28;20393;-73
2022/11/21 06:38:45;;;;;;;24.55;12.93;;;-0.60;99.90;;;;;;5032074;28;20027;-74
2022/11/21 06:41:15;;;;;;;23.42;12.73;;;-0.60;99.90;;;;;;5012780;28;20029;-73
2022/11/21 06:43:42;;;;;;;24.92;13.35;;;-0.60;99.90;;;;;;5018658;28;20036;-74
2022/11/21 06:46:07;;;;;;;26.52;14.13;;;-0.60;99.90;;;;;;5013941;28;20338;-73
2022/11/21 06:48:35;;;;;;;23.52;13.13;;;-0.60;99.90;;;;;;5018596;28;20033;-73
2022/11/21 06:51:18;;;;;;;23.25;13.52;;;-0.60;99.90;;;;;;5037670;28;20029;-73
2022/11/21 06:53:45;;;;;;;26.05;13.52;;;-0.60;99.90;;;;;;5013902;28;20634;-73
2022/11/21 06:56:10;;;;;;;25.13;13.60;;;-0.50;99.90;;;;;;5035848;28;20090;-72
2022/11/21 06:58:37;;;;;;;27.05;14.75;;;-0.60;99.90;;;;;;5021317;28;20029;-73
2022/11/21 07:01:07;;;;;;;24.92;14.00;;;-0.50;99.90;;;;;;5052644;28;20527;-74
2022/11/21 07:03:34;;;;;;;25.08;13.75;;;-0.50;99.90;;;;;;5039023;28;20090;-72
2022/11/21 07:06:00;;;;;;;28.45;15.07;;;-0.50;99.90;;;;;;5019273;28;20033;-72
2022/11/21 07:08:28;;;;;;;25.05;13.93;;;-0.50;99.90;;;;;;5019810;28;20093;-72
2022/11/21 07:10:54;;;;;;;25.92;13.43;;;-0.50;99.90;;;;;;5036254;28;20078;-72
2022/11/21 07:13:22;;;;;;;25.52;13.45;;;-0.50;99.90;;;;;;5003577;28;20492;-72
2022/11/21 07:15:54;;;;;;;23.33;12.98;;;-0.60;99.90;;;;;;5050478;28;20104;-72
2022/11/21 07:18:20;;;;;;;24.08;13.52;;;-0.70;99.90;;;;;;5039064;28;20265;-72
2022/11/21 07:20:47;;;;;;;25.58;13.73;;;-0.70;99.90;;;;;;5020065;28;20022;-72
2022/11/21 07:23:13;;;;;;;27.17;14.70;;;-0.70;99.90;;;;;;5022862;28;20055;-73
2022/11/21 07:25:39;;;;;;;24.80;12.68;;;-0.70;99.90;;;;;;5036212;28;20136;-73
2022/11/21 07:28:06;;;;;;;27.92;14.43;;;-0.70;99.90;;;;;;5018935;28;20029;-74
2022/11/21 07:30:32;;;;;;;23.88;13.52;;;-0.70;99.90;;;;;;5006731;28;20024;-71
2022/11/21 07:32:59;;;;;;;25.25;13.80;;;-0.70;99.90;;;;;;5036576;28;20028;-72
2022/11/21 07:35:26;;;;;;;27.38;15.15;;;-0.60;99.90;;;;;;5033908;28;20040;-72
2022/11/21 07:37:52;;;;;;;27.27;15.10;;;-0.60;99.90;;;;;;5037889;28;20067;-73
2022/11/21 07:40:18;;;;;;;28.63;14.65;;;-0.60;99.90;;;;;;5016653;28;20395;-71
2022/11/21 07:42:44;;;;;;;25.33;13.75;;;-0.60;99.90;;;;;;5039020;28;20095;-73
2022/11/21 07:45:10;;;;;;;30.65;15.95;;;-0.70;99.90;;;;;;5054501;28;20080;-73
2022/11/21 07:47:59;;;;;;;29.33;15.63;;;-0.60;99.90;;;;;;5019341;28;20557;-72
2022/11/21 07:50:25;;;;;;;33.25;16.25;;;-0.70;99.90;;;;;;5035741;28;20021;-73
2022/11/21 07:52:51;;;;;;;25.88;14.50;;;-0.70;99.90;;;;;;5035937;28;20427;-73
2022/11/21 07:55:16;;;;;;;26.67;14.30;;;-0.70;99.90;;;;;;5037089;28;20034;-72
2022/11/21 07:57:42;;;;;;;27.33;14.57;;;-0.70;99.90;;;;;;5050089;28;20371;-71
2022/11/21 08:00:08;;;;;;;24.40;13.68;;;-0.70;99.90;;;;;;5035418;28;20108;-75
2022/11/21 08:02:34;;;;;;;25.48;13.68;;;-0.60;99.90;;;;;;5017790;28;20033;-72
2022/11/21 08:05:00;;;;;;;23.17;12.55;;;-0.60;99.90;;;;;;5017206;28;20021;-72
2022/11/21 08:07:26;;;;;;;24.23;13.20;;;-0.70;99.90;;;;;;5033556;28;20038;-73
2022/11/21 08:09:51;;;;;;;23.13;12.82;;;-0.70;99.90;;;;;;5033936;28;20037;-72
2022/11/21 08:12:17;;;;;;;23.05;12.35;;;-0.80;99.90;;;;;;5036167;28;20503;-71
2022/11/21 08:14:43;;;;;;;23.92;12.98;;;-0.80;99.90;;;;;;5034819;28;20025;-73
2022/11/21 08:17:09;;;;;;;24.90;12.80;;;-0.80;99.90;;;;;;5036529;28;20032;-73
2022/11/21 08:19:34;;;;;;;23.38;13.13;;;-0.80;99.90;;;;;;5035026;28;20124;-73
2022/11/21 08:22:00;;;;;;;24.13;12.95;;;-0.70;99.90;;;;;;5036048;28;20035;-73
2022/11/21 08:24:26;;;;;;;21.48;12.18;;;-0.70;99.90;;;;;;5037409;28;20094;-73
2022/11/21 08:26:52;;;;;;;25.13;12.90;;;-0.70;99.90;;;;;;5035725;28;20481;-73
2022/11/21 08:29:18;;;;;;;23.95;13.77;;;-0.70;99.90;;;;;;5036304;28;20420;-73
2022/11/21 08:31:47;;;;;;;23.40;11.88;;;-0.60;99.90;;;;;;5051686;28;20032;-73
2022/11/21 08:34:13;;;;;;;22.38;13.05;;;-0.60;99.90;;;;;;5052853;28;20105;-73
2022/11/21 08:36:38;;;;;;;21.15;12.00;;;-0.60;99.90;;;;;;5037847;28;20108;-72
2022/11/21 08:39:04;;;;;;;21.35;12.45;;;-0.50;99.90;;;;;;5033516;28;20029;-73
2022/11/21 08:44:14;;;;;;;25.05;13.32;;;-0.40;99.90;;;;;;5036882;28;20384;-74
2022/11/21 08:46:40;;;;;;;19.63;11.80;;;-0.40;99.90;;;;;;5020029;28;20043;-73
2022/11/21 08:49:07;;;;;;;20.85;11.50;;;-0.40;99.90;;;;;;5037623;28;20025;-71
2022/11/21 08:51:33;;;;;;;20.90;11.88;;;-0.40;99.90;;;;;;5039113;28;20075;-72
2022/11/21 08:53:59;;;;;;;26.33;12.73;;;-0.40;99.90;;;;;;5029519;28;20065;-73
2022/11/21 08:56:27;;;;;;;22.73;12.57;;;-0.40;99.90;;;;;;5002931;28;20021;-74
2022/11/21 08:58:53;;;;;;;21.50;11.68;;;-0.40;99.90;;;;;;5038127;28;20030;-73
2022/11/21 09:01:18;;;;;;;21.55;12.18;;;-0.40;99.90;;;;;;5038910;28;20045;-71
2022/11/21 09:03:44;;;;;;;21.88;12.45;;;-0.40;99.90;;;;;;5039284;28;20183;-71
2022/11/21 09:06:11;;;;;;;22.23;12.38;;;-0.40;99.90;;;;;;5042761;28;20048;-72
2022/11/21 09:08:36;;;;;;;22.55;12.77;;;-0.40;99.90;;;;;;5037356;28;20044;-73
2022/11/21 09:11:07;;;;;;;20.90;11.85;;;-0.40;99.90;;;;;;5051445;28;20030;-73
2022/11/21 09:13:33;;;;;;;21.77;12.23;;;-0.40;99.90;;;;;;5020513;28;20021;-73
2022/11/21 09:18:44;;;;;;;21.42;11.98;;;-0.30;99.90;;;;;;5039380;28;20017;-74
2022/11/21 09:21:17;;;;;;;22.15;12.50;;;-0.30;99.90;;;;;;5053812;28;20032;-73
2022/11/21 09:23:43;;;;;;;22.92;13.18;;;-0.20;99.90;;;;;;5040130;28;20087;-73
2022/11/21 09:26:09;;;;;;;25.35;14.27;;;-0.20;99.90;;;;;;5057762;28;20028;-73
2022/11/21 09:28:35;;;;;;;23.40;13.07;;;-0.20;99.90;;;;;;5039011;28;20030;-73
2022/11/21 09:31:02;;;;;;;26.85;14.95;;;-0.20;99.90;;;;;;5019799;28;20472;-73
2022/11/21 09:33:28;;;;;;;25.15;13.70;;;-0.10;99.90;;;;;;5040572;28;20509;-73
2022/11/21 09:35:56;;;;;;;26.88;14.23;;;-0.10;99.90;;;;;;5042376;28;20041;-73
2022/11/21 09:38:22;;;;;;;27.83;14.30;;;-0.10;99.90;;;;;;5021565;28;20043;-72
2022/11/21 09:40:48;;;;;;;25.13;13.27;;;0.00;99.90;;;;;;5022908;28;20509;-72
2022/11/21 09:43:37;;;;;;;30.33;15.63;;;0.10;99.90;;;;;;5054589;28;20041;-72
2022/11/21 09:46:16;;;;;;;27.92;15.02;;;0.10;99.90;;;;;;5020342;28;20037;-71
2022/11/21 09:48:54;;;;;;;23.38;13.02;;;0.10;99.90;;;;;;5024100;28;20022;-74
2022/11/21 09:51:22;;;;;;;24.17;13.80;;;0.20;99.90;;;;;;5006203;28;20572;-73
2022/11/21 09:54:05;;;;;;;22.67;13.00;;;0.20;99.90;;;;;;5024007;28;20052;-73
2022/11/21 09:56:35;;;;;;;23.83;13.57;;;0.10;99.90;;;;;;5040781;28;20060;-71
2022/11/21 09:59:20;;;;;;;26.73;14.05;;;0.10;99.90;;;;;;5040273;28;20560;-72
2022/11/21 10:01:46;;;;;;;25.70;13.60;;;0.10;99.90;;;;;;5034966;28;20043;-72
2022/11/21 10:04:12;;;;;;;23.83;13.63;;;0.20;99.90;;;;;;5036752;28;20402;-72
2022/11/21 10:06:58;;;;;;;27.10;14.13;;;0.20;99.90;;;;;;5018917;28;20052;-75
2022/11/21 10:09:27;;;;;;;23.77;12.95;;;0.20;99.90;;;;;;5040175;28;20087;-73
2022/11/21 10:15:41;;;;;;;22.60;12.23;;;0.10;99.90;;;;;;5036349;28;20028;-76
2022/11/21 10:18:59;;;;;;;23.92;13.48;;;0.00;99.90;;;;;;5051779;28;20489;-72
2022/11/21 10:21:49;;;;;;;24.52;14.15;;;0.10;99.90;;;;;;5009263;28;20041;-72
2022/11/21 10:24:39;;;;;;;23.35;14.00;;;0.00;99.90;;;;;;5037090;28;20357;-71
2022/11/21 10:27:17;;;;;;;24.88;13.40;;;0.10;99.90;;;;;;5019784;28;20053;-73
2022/11/21 10:29:56;;;;;;;26.50;12.82;;;0.10;99.90;;;;;;5021647;28;20029;-73
2022/11/21 10:32:24;;;;;;;22.95;11.68;;;0.10;99.90;;;;;;5036440;28;20063;-72
2022/11/21 10:34:55;;;;;;;21.95;12.00;;;0.10;99.90;;;;;;5002863;28;20128;-72
2022/11/21 10:37:47;;;;;;;23.60;12.45;;;0.00;99.90;;;;;;5037775;28;20074;-72
2022/11/21 10:40:40;;;;;;;20.88;10.90;;;0.10;99.90;;;;;;5056003;28;20314;-73
2022/11/21 10:45:53;;;;;;;21.38;11.68;;;0.00;99.90;;;;;;5037021;28;20037;-72
2022/11/21 10:48:19;;;;;;;21.48;11.55;;;0.10;99.90;;;;;;5020640;28;20057;-70
2022/11/21 10:50:56;;;;;;;22.67;12.90;;;0.10;99.90;;;;;;5021976;28;20509;-73
2022/11/21 10:56:12;;;;;;;22.77;12.25;;;0.10;99.90;;;;;;5036941;28;20026;-72
2022/11/21 10:58:46;;;;;;;24.80;12.65;;;0.20;99.90;;;;;;5003671;28;20025;-73
2022/11/21 11:01:33;;;;;;;21.73;12.68;;;0.10;99.90;;;;;;5036325;28;20392;-73
2022/11/21 11:04:10;;;;;;;28.08;13.30;;;0.20;99.90;;;;;;5037509;28;20025;-73
2022/11/21 11:06:41;;;;;;;25.90;13.45;;;0.20;99.90;;;;;;5038093;28;20134;-72
2022/11/21 11:09:20;;;;;;;22.98;12.80;;;0.20;99.90;;;;;;5038632;28;20044;-73
2022/11/21 11:11:46;;;;;;;24.55;12.95;;;0.30;99.90;;;;;;5049961;28;20168;-72
2022/11/21 11:14:14;;;;;;;26.15;12.32;;;0.30;99.90;;;;;;5052689;28;20096;-73
2022/11/21 11:16:46;;;;;;;21.88;12.73;;;0.30;99.90;;;;;;5001634;28;20492;-73
2022/11/21 11:19:12;;;;;;;24.52;12.50;;;0.40;99.90;;;;;;5042039;28;20028;-72
2022/11/21 11:21:38;;;;;;;24.90;13.00;;;0.40;99.90;;;;;;5020200;28;20029;-73
2022/11/21 11:24:10;;;;;;;26.70;13.85;;;0.40;99.90;;;;;;5053888;28;20032;-72
2022/11/21 11:26:48;;;;;;;27.02;13.20;;;0.50;99.90;;;;;;5053621;28;20283;-72
2022/11/21 11:29:25;;;;;;;23.48;12.65;;;0.50;99.90;;;;;;5038442;28;20026;-72
2022/11/21 11:32:11;;;;;;;22.48;11.13;;;0.60;99.90;;;;;;5050553;28;20035;-73
2022/11/21 11:34:46;;;;;;;22.92;12.52;;;0.70;99.90;;;;;;5020553;28;20083;-72
2022/11/21 11:37:19;;;;;;;21.45;11.70;;;0.70;99.90;;;;;;5020448;28;20422;-72
2022/11/21 11:39:53;;;;;;;23.08;11.25;;;0.70;99.90;;;;;;5038762;28;20064;-72
2022/11/21 11:48:21;;;;;;;19.85;10.25;;;0.80;99.90;;;;;;5017405;28;20022;-73
2022/11/21 11:50:59;;;;;;;19.65;10.63;;;0.90;99.90;;;;;;5036406;28;20038;-73
2022/11/21 11:53:29;;;;;;;17.25;9.57;;;0.90;99.90;;;;;;5035393;28;20071;-72
2022/11/21 11:55:59;;;;;;;18.77;9.30;;;1.00;99.90;;;;;;5037479;28;20116;-73
2022/11/21 11:58:48;;;;;;;15.70;8.30;;;1.00;99.90;;;;;;5018816;28;20461;-74
2022/11/21 12:01:21;;;;;;;13.35;7.93;;;1.00;99.90;;;;;;5017967;28;20041;-73
2022/11/21 12:03:57;;;;;;;16.65;8.25;;;1.10;99.90;;;;;;5018604;28;20199;-73
2022/11/21 12:06:26;;;;;;;14.52;7.47;;;1.10;99.90;;;;;;5019347;28;20435;-74
2022/11/21 12:09:05;;;;;;;16.42;8.20;;;1.20;99.90;;;;;;5050976;28;20116;-73
2022/11/21 12:12:05;;;;;;;11.27;7.00;;;1.20;99.90;;;;;;5035581;28;20037;-74
2022/11/21 12:18:07;;;;;;;14.88;7.20;;;1.40;99.90;;;;;;5037672;28;20022;-73
2022/11/21 12:20:38;;;;;;;18.52;7.97;;;1.30;99.90;;;;;;5051690;28;20031;-74
2022/11/21 12:23:06;;;;;;;15.13;7.55;;;1.30;99.90;;;;;;5003619;28;20021;-73
2022/11/21 12:25:59;;;;;;;13.23;7.25;;;1.30;99.90;;;;;;5003444;28;20026;-73
2022/11/21 12:28:35;;;;;;;10.95;6.55;;;1.30;99.90;;;;;;5052980;28;20021;-73
2022/11/21 12:31:26;;;;;;;12.90;7.72;;;1.30;99.90;;;;;;5038242;28;20106;-73
2022/11/21 12:34:17;;;;;;;11.50;6.10;;;1.30;99.90;;;;;;5009602;28;20145;-73
2022/11/21 12:36:55;;;;;;;10.25;5.93;;;1.40;99.90;;;;;;5042463;28;20479;-73
2022/11/21 12:39:49;;;;;;;11.57;6.25;;;1.40;99.90;;;;;;5052109;28;20033;-72
2022/11/21 12:45:14;;;;;;;12.90;6.55;;;1.60;99.90;;;;;;5060089;28;20044;-73
2022/11/21 12:54:33;;;;;;;11.65;6.68;;;1.50;99.90;;;;;;5014126;28;20092;-71
2022/11/21 12:57:12;;;;;;;13.23;8.15;;;1.50;99.90;;;;;;5028199;28;20030;-72
2022/11/21 13:00:29;;;;;;;11.15;7.03;;;1.40;99.90;;;;;;5031799;28;20025;-73
2022/11/21 13:03:39;;;;;;;10.65;5.93;;;1.40;99.90;;;;;;4964900;28;20053;-73
2022/11/21 13:06:18;;;;;;;12.05;6.68;;;1.40;99.90;;;;;;4980473;28;20050;-71
2022/11/21 13:08:47;;;;;;;12.35;6.60;;;1.90;99.90;;;;;;4960997;28;20070;-71
2022/11/21 13:14:20;;;;;;;9.43;5.07;;;1.60;99.90;;;;;;4978447;28;20058;-73
2022/11/21 13:17:05;;;;;;;11.63;6.45;;;1.60;99.90;;;;;;4978169;28;20045;-71
2022/11/21 13:19:42;;;;;;;205.20;78.53;;;1.50;99.90;;;;;;4980639;28;20185;-72
2022/11/21 13:22:36;;;;;;;319.30;128.70;;;1.60;99.90;;;;;;4982078;28;20341;-72
2022/11/21 13:25:11;;;;;;;1228.68;636.03;;;1.60;99.90;;;;;;4981543;28;20510;-72
2022/11/21 13:27:41;;;;;;;370.77;191.02;;;1.60;99.90;;;;;;4962962;28;20063;-75
2022/11/21 13:30:07;;;;;;;32.33;16.02;;;1.60;99.90;;;;;;4978801;28;20058;-72